Time;durP1;ratioP1;P1;durP2;ratioP2;P2;SDS_P1;SDS_P2;PMS_P1;PMS_P2;Temp;Humidity;BMP_temperature;BMP_pressure;BME280_temperature;BME280_humidity;BME280_pressure;Samples;Min_cycle;Max_cycle;Signal;HPM_P1;HPM_P2
2022/10/30 00:03:08;;;;;;;88.50;71.90;;;;;;;13.82;73.90;100835.84;108395;1274;21943;-83
2022/10/30 00:05:48;;;;;;;85.20;70.20;;;;;;;13.83;74.16;100836.65;108347;1284;21930;-82
2022/10/30 00:08:32;;;;;;;81.40;67.50;;;;;;;13.86;74.21;100836.37;108443;1283;21951;-83
2022/10/30 00:11:10;;;;;;;77.40;63.10;;;;;;;13.84;74.15;100838.02;108305;1276;22219;-84
2022/10/30 00:13:43;;;;;;;78.60;61.90;;;;;;;13.82;74.12;100832.67;108156;1284;23081;-85
2022/10/30 00:16:17;;;;;;;68.60;59.90;;;;;;;13.79;74.05;100830.89;107852;1286;21942;-84
2022/10/30 00:18:55;;;;;;;74.60;61.30;;;;;;;13.77;74.08;100833.79;108202;1280;22512;-84
2022/10/30 00:21:26;;;;;;;72.70;58.70;;;;;;;13.73;74.22;100832.02;108462;1284;21942;-84
2022/10/30 00:24:00;;;;;;;69.60;58.60;;;;;;;13.71;74.38;100828.95;108411;1280;23128;-82
2022/10/30 00:26:42;;;;;;;67.10;56.20;;;;;;;13.73;74.44;100828.21;108532;1280;21943;-82
2022/10/30 00:29:11;;;;;;;65.80;53.60;;;;;;;13.70;74.45;100825.67;108089;1280;21934;-82
2022/10/30 00:31:49;;;;;;;63.70;54.30;;;;;;;13.68;74.43;100825.42;108525;1277;21932;-83
2022/10/30 00:34:32;;;;;;;62.40;53.50;;;;;;;13.67;74.53;100828.42;108444;1280;21937;-84
2022/10/30 00:37:12;;;;;;;59.40;52.60;;;;;;;13.68;74.63;100833.30;108533;1280;23056;-84
2022/10/30 00:39:41;;;;;;;65.40;55.20;;;;;;;13.69;74.65;100830.11;108433;1280;23075;-82
2022/10/30 00:42:32;;;;;;;63.80;55.70;;;;;;;13.68;74.47;100827.52;108769;1281;21966;-83
2022/10/30 00:45:04;;;;;;;63.90;54.50;;;;;;;13.65;74.60;100831.83;108360;1286;21938;-83
2022/10/30 00:48:06;;;;;;;65.00;54.00;;;;;;;13.67;74.73;100833.36;107484;1291;22488;-84
2022/10/30 00:50:50;;;;;;;64.40;52.60;;;;;;;13.67;74.64;100835.61;107439;1285;23189;-83
2022/10/30 00:53:34;;;;;;;64.00;52.30;;;;;;;13.65;74.71;100827.98;107979;1289;21965;-84
2022/10/30 00:56:14;;;;;;;61.10;53.50;;;;;;;13.65;74.52;100823.45;108001;1289;21997;-83
2022/10/30 00:58:57;;;;;;;62.60;53.40;;;;;;;13.64;74.51;100821.23;107907;1288;21963;-83
2022/10/30 01:02:11;;;;;;;59.90;53.50;;;;;;;13.59;74.53;100827.39;107816;1291;21972;-83
2022/10/30 01:04:56;;;;;;;62.10;55.30;;;;;;;13.56;74.87;100831.70;107387;1292;22439;-82
2022/10/30 01:07:41;;;;;;;58.50;49.20;;;;;;;13.61;74.94;100830.29;107842;1281;21975;-79
2022/10/30 01:10:18;;;;;;;61.60;52.70;;;;;;;13.62;74.89;100830.92;107674;1285;24109;-85
2022/10/30 01:12:58;;;;;;;61.20;54.50;;;;;;;13.64;74.93;100826.28;107244;1295;21971;-83
2022/10/30 01:15:38;;;;;;;58.30;51.80;;;;;;;13.66;74.96;100829.17;107204;1297;21955;-83
2022/10/30 01:18:25;;;;;;;59.30;52.10;;;;;;;13.66;74.83;100835.30;107156;1295;21955;-83
2022/10/30 01:22:02;;;;;;;63.70;56.00;;;;;;;13.62;74.71;100834.45;107425;1293;21954;-84
2022/10/30 01:25:15;;;;;;;62.50;55.80;;;;;;;13.55;74.83;100830.69;107394;1292;23185;-83
2022/10/30 01:28:17;;;;;;;71.60;64.00;;;;;;;13.51;75.01;100829.63;108044;1289;21956;-85
2022/10/30 01:30:55;;;;;;;;;;;;;;;13.51;75.06;100826.31;108223;1281;21918;-84
2022/10/30 01:34:15;;;;;;;70.10;62.70;;;;;;;13.40;75.23;100823.98;108292;1280;21966;-84
2022/10/30 01:37:44;;;;;;;66.60;59.60;;;;;;;13.35;75.32;100825.77;108342;1286;21976;-83
2022/10/30 01:40:25;;;;;;;64.70;57.70;;;;;;;13.32;75.37;100823.09;107518;1290;22896;-82
2022/10/30 01:43:01;;;;;;;68.60;56.00;;;;;;;13.34;75.45;100818.13;107714;1289;22433;-82
2022/10/30 01:46:07;;;;;;;58.70;52.40;;;;;;;13.35;75.39;100809.54;107643;1289;22364;-82
2022/10/30 01:49:05;;;;;;;60.20;52.50;;;;;;;13.29;75.49;100804.35;107852;1289;22104;-82
2022/10/30 01:52:21;;;;;;;59.50;52.60;;;;;;;13.27;75.64;100812.80;107843;1286;21939;-81
2022/10/30 01:55:18;;;;;;;58.30;49.80;;;;;;;13.29;75.90;100813.23;108244;1283;21951;-82
2022/10/30 01:58:41;;;;;;;53.40;47.40;;;;;;;13.27;75.78;100817.31;108533;1283;22250;-82
2022/10/30 02:01:14;;;;;;;55.10;49.50;;;;;;;13.27;75.80;100814.02;108039;1289;21965;-84
2022/10/30 02:04:00;;;;;;;53.30;46.80;;;;;;;13.28;75.68;100807.70;107851;1289;24415;-84
2022/10/30 02:06:47;;;;;;;58.00;51.10;;;;;;;13.22;75.32;100797.10;107804;1287;22261;-83
2022/10/30 02:09:19;;;;;;;55.50;49.90;;;;;;;13.14;75.60;100790.41;107977;1285;21949;-83
2022/10/30 02:12:01;;;;;;;55.70;49.20;;;;;;;13.13;75.62;100788.40;108062;1289;21978;-84
2022/10/30 02:14:47;;;;;;;58.50;51.10;;;;;;;13.10;75.74;100792.17;107882;1292;23680;-84
2022/10/30 02:17:24;;;;;;;54.00;48.30;;;;;;;13.09;75.95;100790.80;108355;1283;23588;-83
2022/10/30 02:19:54;;;;;;;52.10;46.50;;;;;;;13.08;75.91;100791.54;108417;1283;21997;-84
2022/10/30 02:22:28;;;;;;;62.00;50.50;;;;;;;13.10;75.91;100785.38;108633;1283;23673;-82
2022/10/30 02:25:21;;;;;;;57.80;49.30;;;;;;;13.08;76.04;100775.11;108510;1283;23702;-84
2022/10/30 02:27:52;;;;;;;63.30;51.70;;;;;;;13.04;76.07;100779.98;108030;1289;21966;-81
2022/10/30 02:30:59;;;;;;;55.20;48.80;;;;;;;12.98;76.14;100776.23;108155;1289;21944;-80
2022/10/30 02:34:11;;;;;;;60.40;49.10;;;;;;;12.99;76.31;100771.14;108057;1289;22072;-83
2022/10/30 02:37:31;;;;;;;56.90;47.50;;;;;;;12.97;76.37;100772.25;107107;1291;23804;-83
2022/10/30 02:40:16;;;;;;;55.60;48.60;;;;;;;12.96;76.32;100777.53;107484;1293;23648;-84
2022/10/30 02:42:53;;;;;;;54.80;47.70;;;;;;;12.99;76.39;100785.27;107732;1291;21987;-82
2022/10/30 02:45:51;;;;;;;53.50;47.90;;;;;;;13.03;76.67;100793.70;107671;1289;21949;-83
2022/10/30 02:48:32;;;;;;;52.70;46.90;;;;;;;13.09;76.60;100800.42;108033;1288;22718;-82
2022/10/30 02:51:23;;;;;;;57.20;45.00;;;;;;;13.11;76.44;100800.15;108099;1288;22327;-83
2022/10/30 02:53:51;;;;;;;54.90;44.40;;;;;;;13.14;76.24;100799.88;107884;1289;23014;-82
2022/10/30 02:56:19;;;;;;;53.00;44.50;;;;;;;13.16;76.16;100807.66;108442;1286;21949;-83
2022/10/30 02:58:56;;;;;;;51.50;45.50;;;;;;;13.17;76.21;100808.47;108409;1283;23759;-83
2022/10/30 03:01:24;;;;;;;47.30;42.20;;;;;;;13.19;76.07;100809.62;108412;1287;23346;-82
2022/10/30 03:03:58;;;;;;;48.50;43.20;;;;;;;13.19;75.95;100812.25;108304;1282;22443;-82
2022/10/30 03:06:29;;;;;;;49.30;44.00;;;;;;;13.19;75.95;100815.71;108374;1284;23699;-82
2022/10/30 03:08:58;;;;;;;49.40;44.30;;;;;;;13.20;75.92;100817.27;108724;1279;22172;-82
2022/10/30 03:11:29;;;;;;;52.10;45.40;;;;;;;13.20;76.03;100820.41;108711;1279;23695;-82
2022/10/30 03:13:57;;;;;;;50.70;45.40;;;;;;;13.20;75.89;100824.44;108303;1283;23672;-82
2022/10/30 03:16:32;;;;;;;50.40;44.90;;;;;;;13.19;75.89;100828.84;108353;1286;22058;-82
2022/10/30 03:19:21;;;;;;;51.10;45.80;;;;;;;13.17;75.89;100831.55;108332;1284;21948;-83
2022/10/30 03:22:03;;;;;;;;;;;;;;;;;;;;;
2022/10/30 03:24:45;;;;;;;46.90;41.90;;;;;;;13.18;75.85;100836.73;108282;1286;21933;-80
2022/10/30 03:27:14;;;;;;;46.80;41.70;;;;;;;13.17;75.77;100828.20;108377;1285;21952;-80
2022/10/30 03:29:42;;;;;;;51.50;46.20;;;;;;;13.18;75.71;100825.41;108384;1287;22016;-81
2022/10/30 03:32:12;;;;;;;50.00;44.70;;;;;;;13.17;75.63;100823.70;108506;1282;23608;-81
2022/10/30 03:34:49;;;;;;;48.20;43.00;;;;;;;13.14;75.57;100826.27;108617;1280;21938;-82
2022/10/30 03:37:20;;;;;;;50.80;44.90;;;;;;;13.12;75.59;100827.36;108303;1286;23006;-83
2022/10/30 03:39:49;;;;;;;50.10;44.00;;;;;;;13.11;75.52;100821.65;108422;1286;21940;-82
2022/10/30 03:42:18;;;;;;;50.40;45.00;;;;;;;13.10;75.50;100822.03;108443;1281;21950;-81
2022/10/30 03:44:49;;;;;;;48.80;43.20;;;;;;;13.08;75.46;100828.23;108250;1283;21935;-83
2022/10/30 03:47:36;;;;;;;50.60;44.80;;;;;;;13.05;75.41;100835.51;108404;1286;23596;-82
2022/10/30 03:50:26;;;;;;;49.50;44.10;;;;;;;12.99;75.42;100840.83;108390;1286;21933;-83
2022/10/30 03:52:58;;;;;;;52.10;46.60;;;;;;;12.97;75.25;100843.71;108482;1286;23082;-84
2022/10/30 03:55:40;;;;;;;49.70;43.90;;;;;;;12.94;75.19;100842.45;108615;1280;21932;-83
2022/10/30 03:58:33;;;;;;;48.10;43.10;;;;;;;12.87;75.19;100832.21;108764;1280;21937;-83
2022/10/30 04:01:06;;;;;;;51.00;45.50;;;;;;;12.86;75.15;100830.35;108700;1279;21966;-83
2022/10/30 04:03:37;;;;;;;54.00;44.70;;;;;;;12.83;75.16;100825.92;108374;1286;21948;-84
2022/10/30 04:06:06;;;;;;;54.80;46.80;;;;;;;12.81;75.18;100827.04;108495;1286;21964;-83
2022/10/30 04:08:40;;;;;;;49.90;44.50;;;;;;;12.81;75.33;100831.06;108538;1286;23147;-83
2022/10/30 04:11:10;;;;;;;53.90;48.40;;;;;;;12.81;75.28;100836.83;108344;1286;21943;-82
2022/10/30 04:13:41;;;;;;;51.50;46.10;;;;;;;12.80;75.25;100835.83;108301;1286;21945;-82
2022/10/30 04:16:10;;;;;;;48.90;43.60;;;;;;;12.79;75.16;100829.08;108204;1286;23608;-82
2022/10/30 04:18:56;;;;;;;50.20;44.90;;;;;;;12.78;75.16;100824.20;108351;1284;21961;-83
2022/10/30 04:21:50;;;;;;;50.20;44.90;;;;;;;12.73;75.25;100818.29;108515;1280;21957;-81
2022/10/30 04:24:34;;;;;;;51.80;46.10;;;;;;;12.67;75.29;100813.78;108753;1282;22144;-84
2022/10/30 04:27:23;;;;;;;52.70;47.20;;;;;;;12.62;75.55;100817.13;108673;1280;21937;-83
2022/10/30 04:29:51;;;;;;;52.70;47.40;;;;;;;12.59;75.62;100814.29;108768;1280;23584;-86
2022/10/30 04:32:25;;;;;;;55.60;50.10;;;;;;;12.58;75.92;100815.92;108664;1279;21944;-82
2022/10/30 04:35:32;;;;;;;54.10;48.60;;;;;;;12.52;76.07;100808.48;108656;1279;24282;-82
2022/10/30 04:38:58;;;;;;;54.20;48.40;;;;;;;12.48;76.18;100807.55;108720;1281;23012;-82
2022/10/30 04:45:58;;;;;;;57.10;51.20;;;;;;;12.34;76.65;100804.41;107432;1294;21976;-82
2022/10/30 04:48:28;;;;;;;53.70;48.10;;;;;;;12.36;76.77;100798.91;107442;1299;21960;-84
2022/10/30 04:51:02;;;;;;;54.60;49.30;;;;;;;12.40;76.76;100793.71;107414;1298;21967;-83
2022/10/30 04:53:38;;;;;;;53.30;47.80;;;;;;;12.41;76.66;100794.02;107141;1299;22386;-83
2022/10/30 04:56:07;;;;;;;54.80;49.20;;;;;;;12.43;77.00;100795.17;106786;1303;22277;-83
2022/10/30 04:59:23;;;;;;;55.50;49.50;;;;;;;12.47;77.14;100802.19;106798;1303;22003;-83
2022/10/30 05:01:54;;;;;;;51.20;45.70;;;;;;;12.50;76.96;100805.38;106764;1301;21979;-82
2022/10/30 05:04:31;;;;;;;47.70;41.60;;;;;;;12.52;76.95;100800.94;106797;1301;23739;-83
2022/10/30 05:07:14;;;;;;;50.20;44.60;;;;;;;12.49;76.80;100791.80;106817;1301;21989;-83
2022/10/30 05:10:00;;;;;;;49.80;42.90;;;;;;;12.50;76.70;100782.52;106657;1301;23898;-83
2022/10/30 05:12:44;;;;;;;51.30;46.20;;;;;;;12.50;76.78;100782.69;106704;1298;23617;-82
2022/10/30 05:15:14;;;;;;;48.90;43.80;;;;;;;12.53;77.02;100789.92;107336;1295;23106;-82
2022/10/30 05:17:45;;;;;;;51.90;45.90;;;;;;;12.55;76.86;100795.42;107378;1298;22087;-83
2022/10/30 05:20:13;;;;;;;53.30;45.70;;;;;;;12.55;76.71;100801.19;107838;1291;21796;-83
2022/10/30 05:22:56;;;;;;;48.80;43.30;;;;;;;12.55;76.68;100800.83;108367;1285;22032;-82
2022/10/30 05:25:27;;;;;;;45.20;40.70;;;;;;;12.53;76.48;100805.98;108532;1285;21973;-82
2022/10/30 05:28:01;;;;;;;46.90;41.90;;;;;;;12.50;76.42;100804.51;108472;1282;21996;-82
2022/10/30 05:30:39;;;;;;;46.70;41.80;;;;;;;12.44;76.37;100799.51;108506;1278;21936;-83
2022/10/30 05:33:15;;;;;;;48.90;41.70;;;;;;;12.40;76.57;100791.96;108461;1284;21939;-82
2022/10/30 05:35:45;;;;;;;49.80;43.60;;;;;;;12.40;76.70;100789.88;108326;1285;23508;-82
2022/10/30 05:38:13;;;;;;;48.80;43.10;;;;;;;12.39;76.79;100791.84;108283;1286;21964;-82
2022/10/30 05:40:45;;;;;;;48.50;43.30;;;;;;;12.41;76.80;100797.86;108413;1282;21950;-83
2022/10/30 05:43:13;;;;;;;50.30;45.10;;;;;;;12.44;77.02;100797.77;108466;1282;21947;-83
2022/10/30 05:45:42;;;;;;;50.10;44.90;;;;;;;12.48;77.11;100800.23;108294;1281;23013;-83
2022/10/30 05:48:11;;;;;;;50.50;45.40;;;;;;;12.51;77.00;100806.55;108315;1282;23826;-83
2022/10/30 05:50:50;;;;;;;46.90;41.90;;;;;;;12.55;77.02;100815.33;108296;1279;22012;-83
2022/10/30 05:53:32;;;;;;;47.30;42.30;;;;;;;12.57;77.00;100822.05;108712;1279;21930;-80
2022/10/30 05:56:06;;;;;;;44.20;39.70;;;;;;;12.59;76.92;100822.86;108782;1276;24403;-81
2022/10/30 05:58:39;;;;;;;47.50;42.60;;;;;;;12.59;76.84;100812.70;108396;1285;23078;-82
2022/10/30 06:01:08;;;;;;;49.20;44.00;;;;;;;12.61;76.71;100809.84;108413;1284;21971;-82
2022/10/30 06:03:42;;;;;;;45.30;40.50;;;;;;;12.59;76.66;100809.05;108494;1280;22269;-82
2022/10/30 06:06:18;;;;;;;46.40;41.50;;;;;;;12.58;76.69;100806.50;108417;1286;23074;-81
2022/10/30 06:08:57;;;;;;;50.30;45.10;;;;;;;12.56;76.69;100810.05;108150;1287;22038;-84
2022/10/30 06:11:53;;;;;;;55.60;49.80;;;;;;;12.54;76.70;100811.86;108178;1287;21936;-82
2022/10/30 06:14:31;;;;;;;59.60;53.60;;;;;;;12.53;76.74;100813.98;108093;1286;21977;-82
2022/10/30 06:16:59;;;;;;;56.20;50.40;;;;;;;12.53;76.69;100813.83;108034;1287;21946;-81
2022/10/30 06:19:27;;;;;;;56.70;51.00;;;;;;;12.52;76.74;100813.49;108283;1286;21938;-82
2022/10/30 06:22:11;;;;;;;57.50;51.50;;;;;;;12.53;76.81;100814.50;108116;1286;22928;-82
2022/10/30 06:24:54;;;;;;;62.50;56.30;;;;;;;12.51;76.80;100814.27;108631;1278;22521;-80
2022/10/30 06:28:14;;;;;;;61.50;55.20;;;;;;;12.46;76.82;100814.77;108780;1274;23565;-81
2022/10/30 06:30:55;;;;;;;60.10;54.10;;;;;;;12.43;76.92;100816.81;108483;1283;21957;-83
2022/10/30 06:33:26;;;;;;;61.40;55.40;;;;;;;12.47;76.99;100819.12;108444;1280;23102;-80
2022/10/30 06:36:01;;;;;;;59.70;53.90;;;;;;;12.50;77.06;100821.79;108425;1281;22361;-81
2022/10/30 06:38:46;;;;;;;59.60;53.30;;;;;;;12.51;77.12;100824.52;108380;1283;23091;-81
2022/10/30 06:41:22;;;;;;;58.30;52.50;;;;;;;12.55;77.24;100827.18;108360;1281;21957;-82
2022/10/30 06:44:34;;;;;;;58.00;52.30;;;;;;;12.60;77.37;100820.36;108397;1280;23704;-82
2022/10/30 06:47:09;;;;;;;62.20;56.10;;;;;;;12.63;77.35;100819.73;108399;1286;21920;-82
2022/10/30 06:50:05;;;;;;;58.40;52.30;;;;;;;12.66;77.34;100821.34;108540;1281;24732;-82
2022/10/30 06:52:39;;;;;;;59.00;53.20;;;;;;;12.74;77.22;100833.11;108108;1286;22306;-81
2022/10/30 06:55:11;;;;;;;62.90;56.50;;;;;;;12.80;77.21;100840.53;108051;1286;22938;-82
2022/10/30 06:58:14;;;;;;;66.60;60.40;;;;;;;12.82;77.06;100842.71;107845;1288;23070;-83
2022/10/30 07:01:24;;;;;;;72.10;64.70;;;;;;;12.84;76.98;100848.07;107715;1293;22027;-83
2022/10/30 07:04:30;;;;;;;82.60;74.90;;;;;;;12.87;77.04;100850.20;107346;1288;22005;-82
2022/10/30 07:07:28;;;;;;;;;;;;;;;;;;;;;
2022/10/30 07:10:41;;;;;;;87.60;79.30;;;;;;;12.98;77.04;100841.92;107734;1289;23535;-81
2022/10/30 07:15:32;;;;;;;;;;;;;;;;;;;;;
2022/10/30 07:20:00;;;;;;;;;;;;;;;;;;;;;
2022/10/30 07:23:12;;;;;;;65.30;58.80;;;;;;;13.35;77.52;100852.50;106264;1307;23679;-82
2022/10/30 07:25:58;;;;;;;60.10;54.20;;;;;;;13.50;77.12;100848.21;106340;1303;23695;-84
2022/10/30 07:30:05;;;;;;;;;;;;;;;;;;;;;
2022/10/30 07:44:35;;;;;;;;;;;;;;;;;;;;;
2022/10/30 07:48:51;;;;;;;52.40;47.20;;;;;;;15.77;68.89;100858.35;105230;1263;21937;-84
2022/10/30 07:52:40;;;;;;;;;;;;;;;15.60;70.35;100859.20;108980;1274;22483;-86
2022/10/30 07:56:30;;;;;;;52.00;46.80;;;;;;;15.51;70.69;100854.40;108565;1280;23113;-84
2022/10/30 08:14:09;;;;;;;;;;;;;;;;;;;;;
2022/10/30 08:18:23;;;;;;;40.30;36.00;;;;;;;17.62;62.77;100839.75;104593;1278;5414177;-85
2022/10/30 08:22:03;;;;;;;;;;;;;;;;;;;;;
2022/10/30 08:25:50;;;;;;;40.40;36.20;;;;;;;17.12;64.89;100839.00;108663;1280;21955;-85
2022/10/30 08:30:01;;;;;;;;;;;;;;;;;;;;;
2022/10/30 08:34:33;;;;;;;;;;;;;;;;;;;;;
2022/10/30 08:39:02;;;;;;;46.50;41.50;;;;;;;17.07;66.30;100841.21;107506;1295;21949;-85
2022/10/30 08:42:57;;;;;;;39.70;30.00;;;;;;;17.06;66.50;100840.90;107117;1297;23830;-85
2022/10/30 08:46:05;;;;;;;48.80;43.70;;;;;;;17.17;66.92;100838.02;107565;1283;21932;-86
2022/10/30 08:48:46;;;;;;;40.50;36.10;;;;;;;17.39;67.26;100836.91;107505;1295;22437;-85
2022/10/30 08:51:32;;;;;;;38.70;34.80;;;;;;;17.58;66.83;100837.23;106873;1301;23681;-85
2022/10/30 08:54:09;;;;;;;;;;;;;;;17.67;66.19;100844.05;106971;1296;22017;-83
2022/10/30 08:56:37;;;;;;;30.90;27.70;;;;;;;17.62;66.01;100846.98;106868;1301;23797;-84
2022/10/30 08:59:12;;;;;;;31.70;27.80;;;;;;;17.68;65.84;100843.13;106839;1300;22102;-85
2022/10/30 09:01:56;;;;;;;36.80;29.20;;;;;;;17.71;65.41;100841.84;106855;1288;22412;-84
2022/10/30 09:05:06;;;;;;;33.90;28.60;;;;;;;17.72;65.23;100841.80;106856;1301;22743;-83
2022/10/30 09:08:54;;;;;;;32.20;28.80;;;;;;;17.72;65.05;100844.63;106971;1295;21960;-84
2022/10/30 09:15:34;;;;;;;;;;;;;;;17.74;65.00;100848.38;108365;1285;21949;-84
2022/10/30 09:18:18;;;;;;;42.80;34.40;;;;;;;17.69;65.18;100851.16;108303;1284;21945;-83
2022/10/30 09:20:49;;;;;;;39.10;34.30;;;;;;;17.76;65.23;100847.20;108080;1285;21932;-83
2022/10/30 09:23:41;;;;;;;35.60;27.80;;;;;;;17.79;64.78;100841.90;107780;1291;22733;-83
2022/10/30 09:26:48;;;;;;;37.10;27.80;;;;;;;17.69;64.72;100838.66;107279;1298;22008;-85
2022/10/30 09:29:35;;;;;;;30.00;26.70;;;;;;;17.75;65.00;100836.36;106889;1297;23272;-82
2022/10/30 09:32:43;;;;;;;32.20;28.70;;;;;;;17.81;64.84;100831.77;107138;1294;23153;-85
2022/10/30 09:35:25;;;;;;;35.50;31.60;;;;;;;17.83;64.84;100833.40;107355;1292;21972;-84
2022/10/30 09:37:55;;;;;;;36.80;32.90;;;;;;;17.84;64.52;100834.07;107539;1286;23695;-84
2022/10/30 09:45:17;;;;;;;36.70;32.40;;;;;;;17.69;64.55;100831.59;107812;1291;21955;-84
2022/10/30 09:49:06;;;;;;;42.10;32.30;;;;;;;17.57;64.67;100835.48;107544;1294;21978;-84
2022/10/30 09:52:13;;;;;;;;;;;;;;;;;;;;;
2022/10/30 09:55:06;;;;;;;37.10;32.70;;;;;;;17.47;65.36;100834.86;107901;1289;21955;-86
2022/10/30 09:58:27;;;;;;;42.90;34.10;;;;;;;17.53;65.52;100837.48;107905;1286;22495;-87
2022/10/30 10:01:51;;;;;;;;;;;;;;;;;;;;;
2022/10/30 10:09:52;;;;;;;;;;;;;;;;;;;;;
2022/10/30 10:23:34;;;;;;;;;;;;;;;;;;;;;
2022/10/30 10:30:59;;;;;;;31.90;28.40;;;;;;;18.96;63.12;100833.45;105351;1306;1222370;-84
2022/10/30 10:39:15;;;;;;;;;;;;;;;;;;;;;
2022/10/30 10:48:05;;;;;;;;;;;;;;;;;;;;;
2022/10/30 11:09:36;;;;;;;38.40;27.80;;;;;;;21.23;54.03;100804.38;109497;1271;21936;-82
2022/10/30 11:18:17;;;;;;;44.80;35.90;;;;;;;20.12;56.37;100791.67;108824;1278;22020;-82
2022/10/30 11:23:25;;;;;;;;;;;;;;;;;;;;;
2022/10/30 11:27:22;;;;;;;;;;;;;;;;;;;;;
2022/10/30 11:50:46;;;;;;;;;;;;;;;;;;;;;
2022/10/30 11:55:13;;;;;;;;;;;;;;;;;;;;;
2022/10/30 11:57:57;;;;;;;25.90;23.00;;;;;;;19.68;57.41;100753.46;108702;1282;21990;-85
2022/10/30 12:01:26;;;;;;;31.00;22.00;;;;;;;19.51;58.15;100748.96;108554;1281;23759;-86
2022/10/30 12:05:28;;;;;;;;;;;;;;;;;;;;;
2022/10/30 12:23:23;;;;;;;;;;;;;;;;;;;;;
2022/10/30 12:27:18;;;;;;;30.50;20.00;;;;;;;20.27;56.52;100738.48;110553;1261;21973;-83
2022/10/30 12:31:30;;;;;;;;;;;;;;;;;;;;;
2022/10/30 12:35:44;;;;;;;;;;;;;;;;;;;;;
2022/10/30 12:39:45;;;;;;;;;;;;;;;;;;;;;
2022/10/30 12:43:27;;;;;;;25.60;21.30;;;;;;;19.72;59.22;100739.56;110143;1263;23853;-86
2022/10/30 12:48:01;;;;;;;;;;;;;;;;;;;;;
2022/10/30 12:51:39;;;;;;;;;;;;;;;;;;;;;
2022/10/30 12:55:20;;;;;;;25.80;22.00;;;;;;;19.51;60.06;100737.63;108900;1275;21963;-86
2022/10/30 12:59:14;;;;;;;29.90;22.20;;;;;;;19.49;60.17;100741.48;108747;1275;21970;-84
2022/10/30 13:02:07;;;;;;;28.50;21.80;;;;;;;19.46;60.24;100732.67;108470;1280;21952;-87
2022/10/30 13:04:59;;;;;;;29.30;23.30;;;;;;;19.59;59.95;100731.99;106165;1304;544161;-81
2022/10/30 13:08:12;;;;;;;29.00;21.70;;;;;;;19.51;60.35;100734.83;108116;1287;21974;-86
2022/10/30 13:12:53;;;;;;;;;;;;;;;;;;;;;
2022/10/30 13:17:05;;;;;;;;;;;;;;;;;;;;;
2022/10/30 13:20:22;;;;;;;31.90;23.60;;;;;;;19.22;61.27;100732.61;100422;1302;21938;-82
2022/10/30 13:24:30;;;;;;;;;;;;;;;;;;;;;
2022/10/30 13:27:25;;;;;;;46.10;25.10;;;;;;;19.07;61.98;100735.34;107080;1298;21947;-81
2022/10/30 13:30:15;;;;;;;46.90;41.10;;;;;;;19.06;62.03;100731.00;107474;1295;21968;-81
2022/10/30 13:34:16;;;;;;;27.60;23.90;;;;;;;19.04;62.20;100729.39;107223;1295;22052;-79
2022/10/30 13:37:24;;;;;;;33.70;27.00;;;;;;;19.06;62.39;100730.33;106916;1299;23106;-82
2022/10/30 13:41:18;;;;;;;49.50;44.40;;;;;;;19.02;62.44;100725.08;106221;1307;23066;-84
2022/10/30 13:44:54;;;;;;;74.30;66.40;;;;;;;19.04;62.74;100726.36;105832;1310;22281;-83
2022/10/30 13:55:41;;;;;;;;;;;;;;;19.12;62.89;100726.73;105305;1317;22002;-83
2022/10/30 13:58:58;;;;;;;;;;;;;;;;;;;;;
2022/10/30 14:02:46;;;;;;;32.90;23.60;;;;;;;19.20;62.86;100728.66;105769;1313;22848;-84
2022/10/30 14:06:30;;;;;;;33.60;24.40;;;;;;;19.19;62.77;100726.61;106308;1306;23082;-84
2022/10/30 14:10:14;;;;;;;27.10;23.20;;;;;;;19.21;62.78;100723.33;106297;1306;23125;-82
2022/10/30 14:16:55;;;;;;;28.90;22.10;;;;;;;19.12;62.70;100715.14;106361;1304;22756;-83
2022/10/30 14:20:52;;;;;;;30.70;21.10;;;;;;;19.01;62.82;100713.00;106500;1303;22074;-80
2022/10/30 14:27:57;;;;;;;30.70;25.20;;;;;;;18.80;63.26;100709.46;107459;1292;22398;-81
2022/10/30 14:35:47;;;;;;;;;;;;;;;;;;;;;
2022/10/30 14:39:41;;;;;;;;;;;;;;;;;;;;;
2022/10/30 14:44:18;;;;;;;;;;;;;;;;;;;;;
2022/10/30 14:52:20;;;;;;;;;;;;;;;;;;;;;
2022/10/30 14:56:16;;;;;;;;;;;;;;;;;;;;;
2022/10/30 14:59:53;;;;;;;;;;;;;;;;;;;;;
2022/10/30 15:31:15;;;;;;;;;;;;;;;;;;;;;
2022/10/30 15:35:37;;;;;;;;;;;;;;;;;;;;;
2022/10/30 15:43:50;;;;;;;41.70;34.50;;;;;;;17.54;66.09;100687.15;103132;1310;3552728;-82
2022/10/30 15:50:58;;;;;;;;;;;;;;;;;;;;;
2022/10/30 15:54:14;;;;;;;;;;;;;;;;;;;;;
2022/10/30 15:57:03;;;;;;;59.70;45.60;;;;;;;17.21;67.09;100687.58;104632;1327;22266;-85
2022/10/30 16:00:04;;;;;;;;;;;;;;;;;;;;;
2022/10/30 16:03:27;;;;;;;68.40;58.80;;;;;;;17.05;67.28;100690.64;104579;1322;22506;-84
2022/10/30 16:06:16;;;;;;;63.90;53.90;;;;;;;16.97;67.57;100693.21;104384;1327;22043;-84
2022/10/30 16:08:51;;;;;;;59.90;52.20;;;;;;;16.92;67.61;100692.48;104682;1327;22063;-83
2022/10/30 16:11:45;;;;;;;;;;;;;;;;;;;;;
2022/10/30 16:14:33;;;;;;;53.70;46.40;;;;;;;16.75;67.78;100694.30;105459;1313;23112;-87
2022/10/30 16:17:32;;;;;;;52.20;44.30;;;;;;;16.67;67.83;100692.86;105868;1315;22098;-83
2022/10/30 16:20:16;;;;;;;61.30;51.30;;;;;;;16.56;68.00;100696.07;106585;1292;21887;-85
2022/10/30 16:23:07;;;;;;;69.20;51.90;;;;;;;16.50;68.25;100699.09;107299;1295;21926;-84
2022/10/30 16:25:43;;;;;;;55.50;46.00;;;;;;;16.46;68.38;100700.37;108104;1289;22428;-85
2022/10/30 16:29:21;;;;;;;66.30;57.60;;;;;;;16.38;68.44;100704.32;108261;1280;23613;-84
2022/10/30 16:32:58;;;;;;;;;;;;;;;;;;;;;
2022/10/30 16:36:33;;;;;;;67.30;56.10;;;;;;;16.16;69.40;100703.95;108553;1287;21964;-84
2022/10/30 16:39:26;;;;;;;60.20;50.80;;;;;;;16.15;69.40;100705.46;107584;1292;23820;-84
2022/10/30 16:42:05;;;;;;;109.20;85.90;;;;;;;16.13;69.26;100701.48;108001;1287;22573;-85
2022/10/30 16:45:29;;;;;;;84.00;66.30;;;;;;;16.10;69.34;100701.33;108124;1289;21997;-85
2022/10/30 16:48:23;;;;;;;105.30;77.40;;;;;;;16.01;69.48;100697.27;108711;1279;23061;-82
2022/10/30 16:51:11;;;;;;;97.80;76.50;;;;;;;15.95;69.48;100696.52;108558;1279;22050;-84
2022/10/30 16:53:59;;;;;;;89.30;67.40;;;;;;;15.89;69.54;100695.10;108574;1285;23697;-81
2022/10/30 16:57:34;;;;;;;87.40;70.10;;;;;;;15.85;69.51;100694.23;108278;1281;22341;-84
2022/10/30 17:01:16;;;;;;;;;;;;;;;15.68;69.81;100698.30;107925;1291;21976;-86
2022/10/30 17:04:01;;;;;;;79.80;67.80;;;;;;;15.50;70.06;100698.54;108278;1289;22422;-85
2022/10/30 17:07:24;;;;;;;85.00;69.10;;;;;;;15.48;70.27;100697.06;108059;1289;21992;-86
2022/10/30 17:10:35;;;;;;;88.40;69.20;;;;;;;15.42;70.40;100700.54;108250;1287;22367;-84
2022/10/30 17:13:53;;;;;;;130.70;100.30;;;;;;;15.36;70.49;100702.77;108949;1277;22566;-85
2022/10/30 17:16:38;;;;;;;101.90;86.30;;;;;;;15.34;70.48;100703.42;109003;1277;23617;-85
2022/10/30 17:20:02;;;;;;;102.90;83.50;;;;;;;15.31;70.46;100704.46;108958;1280;21958;-85
2022/10/30 17:23:52;;;;;;;94.20;75.00;;;;;;;15.18;70.57;100706.48;108941;1280;22751;-84
2022/10/30 17:26:37;;;;;;;95.90;75.00;;;;;;;15.13;70.61;100706.45;108697;1280;21963;-84
2022/10/30 17:30:06;;;;;;;79.70;68.10;;;;;;;15.10;70.84;100708.84;109083;1280;21943;-84
2022/10/30 17:33:41;;;;;;;77.40;65.60;;;;;;;15.04;71.03;100710.39;109045;1280;21915;-85
2022/10/30 17:36:20;;;;;;;90.20;75.90;;;;;;;14.99;71.07;100710.61;108950;1275;22459;-85
2022/10/30 17:39:10;;;;;;;132.60;113.50;;;;;;;14.97;71.14;100710.73;109377;1272;21879;-86
2022/10/30 17:42:02;;;;;;;106.90;92.60;;;;;;;14.95;71.17;100714.35;109127;1278;21950;-85
2022/10/30 17:44:39;;;;;;;107.40;89.50;;;;;;;14.91;71.15;100713.33;108752;1283;21948;-83
2022/10/30 17:48:10;;;;;;;143.60;115.50;;;;;;;14.84;71.14;100708.04;108519;1283;21966;-84
2022/10/30 17:50:50;;;;;;;113.70;94.60;;;;;;;14.79;71.50;100707.43;108676;1282;22002;-84
2022/10/30 17:53:32;;;;;;;137.70;109.50;;;;;;;14.77;71.72;100706.98;107903;1291;23706;-85
2022/10/30 17:56:58;;;;;;;;;;;;;;;;;;;;;